Pagrindinis puslapis
METAR-TAF:

METAR-TAF

Oro uostai :

Čumphonas, Tailandas

platuma: 10-42-40N, ilguma: 099-21-42E, Aukštis: 5 m

Dabartinis oras

Ataskaita buvo paskelbta 9 valandos ir 13 minutes, ne 11:00 UTC
Vėjas 4 kt iš Šiaurės/Šiaurės Rytų, svyruoja nuo Šiaurės Vakarų ir Rytų
Temperatūra 28°C
Drėgmė 84%
Slėgis 1009 hPa
Matomumas: 9000 m

METAR: VTSE 251100Z 03004KT 310V100 9000 NSC 28/25 Q1009 NOSIG

Laikas: 03:13 (20:13 UTC)

Prognozė

Ataskaita buvo paskelbta 3 valandos ir 13 minutes, ne 17:00 UTC
Prognozė galioja nuo 25 metu 18 UTC su 26 metu 18 UTC
Vėjas 5 kt iš Šiaurės/Šiaurės Rytų
Matomumas: 9000 m
Mažai debesys ne aukštis 2000 ft

TAF: VTSE 251700Z 2518/2618 03005KT 9000 FEW020

Orai ataskaitas ir orų prognozės (METAR, TAF).

turimą stotys yra geltonos ir raudonos taškus žemėlapyje.

Perkelti pele per norėdami pamatyti stoties vardą.

Tada spustelėkite, norėdami matyti oro stebėjimo ir prognozės.

Norėdami pakeisti žemėlapį: spustelėkite ant žalios mygtukų su juodo kryžiaus žemyn,; žalią mygtuką su brūkšneliu, jei norite nutolinti; arba žalių rodyklių gretimoms žemėlapius.


METAR-TAF: